Time;durP1;ratioP1;P1;durP2;ratioP2;P2;SDS_P1;SDS_P2;PMS_P1;PMS_P2;Temp;Humidity;BMP_temperature;BMP_pressure;BME280_temperature;BME280_humidity;BME280_pressure;Samples;Min_cycle;Max_cycle;Signal;HPM_P1;HPM_P2
2022/07/18 00:00:24;;;;;;;9.43;5.88;;;18.00;99.90;;;;;;4862004;29;20045;-77
2022/07/18 00:02:50;;;;;;;6.85;5.47;;;18.00;99.90;;;;;;4876800;29;20555;-76
2022/07/18 00:05:15;;;;;;;8.20;5.40;;;18.00;99.90;;;;;;4863899;29;20120;-77
2022/07/18 00:07:41;;;;;;;9.20;5.47;;;17.90;99.90;;;;;;4868473;29;20045;-86
2022/07/18 00:10:07;;;;;;;8.95;5.60;;;17.90;99.90;;;;;;4883791;29;20059;-86
2022/07/18 00:12:33;;;;;;;8.48;5.45;;;17.90;99.90;;;;;;4884192;29;20041;-86
2022/07/18 00:14:59;;;;;;;9.07;5.20;;;17.90;99.90;;;;;;4871352;29;20128;-87
2022/07/18 00:17:24;;;;;;;8.00;5.70;;;17.90;99.90;;;;;;4880546;29;20441;-87
2022/07/18 00:19:50;;;;;;;9.50;6.03;;;17.80;99.90;;;;;;4841209;29;20124;-88
2022/07/18 00:22:16;;;;;;;9.77;5.72;;;17.80;99.90;;;;;;4864868;29;20136;-88
2022/07/18 00:24:42;;;;;;;9.60;6.22;;;17.80;99.90;;;;;;4864907;29;20509;-87
2022/07/18 00:27:07;;;;;;;8.65;5.97;;;17.70;99.90;;;;;;4864491;29;20402;-87
2022/07/18 00:29:37;;;;;;;11.60;6.22;;;17.70;99.90;;;;;;4882041;29;20053;-87
2022/07/18 00:32:08;;;;;;;8.18;6.07;;;17.60;99.90;;;;;;4897508;29;20462;-88
2022/07/18 00:34:34;;;;;;;7.25;5.35;;;17.60;99.90;;;;;;4885136;29;20041;-87
2022/07/18 00:37:00;;;;;;;8.95;5.78;;;17.60;99.90;;;;;;4865044;29;20048;-87
2022/07/18 00:39:26;;;;;;;7.13;5.53;;;17.50;99.90;;;;;;4882142;29;20049;-88
2022/07/18 00:41:52;;;;;;;7.88;5.85;;;17.60;99.90;;;;;;4866634;29;20045;-87
2022/07/18 00:44:20;;;;;;;8.15;5.75;;;17.50;99.90;;;;;;4852122;29;20053;-77
2022/07/18 00:46:48;;;;;;;7.60;5.70;;;17.50;99.90;;;;;;4880704;29;20053;-76
2022/07/18 00:49:13;;;;;;;8.23;5.85;;;17.50;99.90;;;;;;4874766;29;20069;-77
2022/07/18 00:51:39;;;;;;;7.95;5.78;;;17.40;99.90;;;;;;4846768;29;20518;-75
2022/07/18 00:54:05;;;;;;;8.23;6.07;;;17.40;99.90;;;;;;4871261;29;20398;-87
2022/07/18 00:56:31;;;;;;;8.20;5.60;;;17.40;99.90;;;;;;4882062;29;20052;-87
2022/07/18 00:58:57;;;;;;;8.45;6.10;;;17.30;99.90;;;;;;4867424;29;20041;-87
2022/07/18 01:04:06;;;;;;;8.88;5.93;;;17.30;99.90;;;;;;4867664;29;20410;-87
2022/07/18 01:06:32;;;;;;;9.35;6.32;;;17.20;99.90;;;;;;4866281;29;20049;-87
2022/07/18 01:08:58;;;;;;;9.38;6.25;;;17.20;99.90;;;;;;4881960;29;20060;-77
2022/07/18 01:11:24;;;;;;;10.65;6.43;;;17.20;99.90;;;;;;4864335;29;20078;-76
2022/07/18 01:13:50;;;;;;;7.93;6.03;;;17.20;99.90;;;;;;4873811;29;20069;-76
2022/07/18 01:16:17;;;;;;;9.15;6.68;;;17.20;99.90;;;;;;4870021;29;20094;-76
2022/07/18 01:18:50;;;;;;;8.55;6.30;;;17.10;99.90;;;;;;4879970;29;20049;-76
2022/07/18 01:21:16;;;;;;;9.60;6.60;;;17.10;99.90;;;;;;4869161;29;20049;-76
2022/07/18 01:23:43;;;;;;;8.07;6.03;;;17.10;99.90;;;;;;4862746;29;20049;-76
2022/07/18 01:26:11;;;;;;;9.10;6.22;;;17.00;99.90;;;;;;4861696;29;20457;-77
2022/07/18 01:28:37;;;;;;;9.82;6.38;;;17.00;99.90;;;;;;4863148;29;20080;-78
2022/07/18 01:31:03;;;;;;;8.93;6.55;;;17.00;99.90;;;;;;4876569;29;20451;-77
2022/07/18 01:33:32;;;;;;;10.88;6.50;;;17.00;99.90;;;;;;4873190;29;20045;-76
2022/07/18 01:36:00;;;;;;;8.23;5.78;;;17.00;99.90;;;;;;4863926;29;20160;-76
2022/07/18 01:38:30;;;;;;;10.23;6.93;;;16.90;99.90;;;;;;4862477;29;20053;-76
2022/07/18 01:40:56;;;;;;;10.05;6.60;;;16.90;99.90;;;;;;4861512;29;20109;-76
2022/07/18 01:43:26;;;;;;;9.23;6.93;;;16.90;99.90;;;;;;4878306;29;20052;-76
2022/07/18 01:45:52;;;;;;;9.07;5.93;;;16.90;99.90;;;;;;4866331;29;20065;-76
2022/07/18 01:48:19;;;;;;;9.43;6.47;;;16.80;99.90;;;;;;4862111;29;20097;-77
2022/07/18 01:50:45;;;;;;;10.07;6.80;;;16.80;99.90;;;;;;4862872;29;20506;-76
2022/07/18 01:53:11;;;;;;;8.80;6.07;;;16.80;99.90;;;;;;4860844;29;20053;-75
2022/07/18 01:55:37;;;;;;;10.15;6.68;;;16.80;99.90;;;;;;4872386;29;20049;-76
2022/07/18 01:58:04;;;;;;;18.75;7.05;;;16.80;99.90;;;;;;4872625;29;20044;-77
2022/07/18 02:00:30;;;;;;;10.25;6.88;;;16.70;99.90;;;;;;4884621;29;20128;-76
2022/07/18 02:02:56;;;;;;;11.15;6.90;;;16.70;99.90;;;;;;4880322;29;20098;-87
2022/07/18 02:05:21;;;;;;;9.50;6.90;;;16.70;99.90;;;;;;4865042;29;20049;-87
2022/07/18 02:07:47;;;;;;;9.57;6.93;;;16.70;99.90;;;;;;4864293;29;20049;-88
2022/07/18 02:10:16;;;;;;;9.32;6.22;;;16.70;99.90;;;;;;4880433;29;20040;-87
2022/07/18 02:12:42;;;;;;;11.10;6.70;;;16.70;99.90;;;;;;4884549;29;20049;-87
2022/07/18 02:15:10;;;;;;;8.73;6.50;;;16.60;99.90;;;;;;4863767;29;20556;-87
2022/07/18 02:17:36;;;;;;;9.57;6.50;;;16.60;99.90;;;;;;4863925;29;20080;-88
2022/07/18 02:20:03;;;;;;;9.02;7.00;;;16.60;99.90;;;;;;4855930;29;20073;-87
2022/07/18 02:22:29;;;;;;;11.20;6.95;;;16.60;99.90;;;;;;4881472;29;20044;-89
2022/07/18 02:24:55;;;;;;;10.38;6.93;;;16.50;99.90;;;;;;4881646;29;20048;-87
2022/07/18 02:27:20;;;;;;;7.60;6.50;;;16.50;99.90;;;;;;4866374;29;20084;-87
2022/07/18 02:29:47;;;;;;;11.43;7.03;;;16.50;99.90;;;;;;4878412;29;20491;-88
2022/07/18 02:32:13;;;;;;;11.23;7.05;;;16.50;99.90;;;;;;4878669;29;20046;-88
2022/07/18 02:34:39;;;;;;;8.73;6.78;;;16.50;99.90;;;;;;4847625;29;20052;-88
2022/07/18 02:37:05;;;;;;;11.57;7.30;;;16.40;99.90;;;;;;4861316;29;20037;-77
2022/07/18 02:39:30;;;;;;;13.13;7.70;;;16.40;99.90;;;;;;4864276;29;20603;-77
2022/07/18 02:41:56;;;;;;;8.88;6.68;;;16.30;99.90;;;;;;4870071;29;20040;-78
2022/07/18 02:44:23;;;;;;;9.27;7.25;;;16.30;99.90;;;;;;4877885;29;20076;-77
2022/07/18 02:46:48;;;;;;;9.77;6.72;;;16.30;99.90;;;;;;4879371;29;20056;-76
2022/07/18 02:49:27;;;;;;;10.20;7.32;;;16.30;99.90;;;;;;4874697;29;20045;-76
2022/07/18 02:52:00;;;;;;;9.05;6.97;;;16.20;99.90;;;;;;4860343;29;20033;-77
2022/07/18 02:54:27;;;;;;;11.55;7.80;;;16.20;99.90;;;;;;4869033;29;20048;-76
2022/07/18 02:56:52;;;;;;;8.02;6.45;;;16.20;99.90;;;;;;4878605;29;20097;-76
2022/07/18 02:59:18;;;;;;;11.77;7.85;;;16.20;99.90;;;;;;4861811;29;20048;-88
2022/07/18 03:01:44;;;;;;;9.43;7.25;;;16.10;99.90;;;;;;4864476;29;20044;-76
2022/07/18 03:04:10;;;;;;;10.15;7.28;;;16.20;99.90;;;;;;4847727;29;20090;-76
2022/07/18 03:06:36;;;;;;;13.77;7.72;;;16.10;99.90;;;;;;4871946;29;20084;-76
2022/07/18 03:09:03;;;;;;;10.55;7.57;;;16.10;99.90;;;;;;4864278;29;20068;-76
2022/07/18 03:11:28;;;;;;;12.23;7.30;;;16.00;99.90;;;;;;4864728;29;20037;-76
2022/07/18 03:13:54;;;;;;;9.90;7.15;;;16.00;99.90;;;;;;4864204;29;20538;-77
2022/07/18 03:16:20;;;;;;;12.48;7.78;;;16.00;99.90;;;;;;4881555;29;20480;-77
2022/07/18 03:18:45;;;;;;;9.60;7.13;;;15.90;99.90;;;;;;4883045;29;20072;-77
2022/07/18 03:21:11;;;;;;;9.32;7.43;;;15.90;99.90;;;;;;4863535;29;20088;-75
2022/07/18 03:23:37;;;;;;;9.70;7.28;;;15.90;99.90;;;;;;4865661;29;20037;-76
2022/07/18 03:26:03;;;;;;;12.27;7.68;;;15.90;99.90;;;;;;4863938;29;20060;-77
2022/07/18 03:28:28;;;;;;;16.90;7.95;;;15.80;99.90;;;;;;4847717;29;20060;-77
2022/07/18 03:30:54;;;;;;;11.80;7.30;;;15.90;99.90;;;;;;4865974;29;20125;-77
2022/07/18 03:33:20;;;;;;;9.43;6.93;;;15.80;99.90;;;;;;4863756;29;20056;-77
2022/07/18 03:35:45;;;;;;;10.32;7.72;;;15.80;99.90;;;;;;4860906;29;20124;-77
2022/07/18 03:38:11;;;;;;;10.25;7.63;;;15.80;99.90;;;;;;4883527;29;20052;-77
2022/07/18 03:40:37;;;;;;;10.63;7.57;;;15.80;99.90;;;;;;4883293;29;20048;-76
2022/07/18 03:43:02;;;;;;;10.55;7.82;;;15.80;99.90;;;;;;4884496;29;20041;-77
2022/07/18 03:45:28;;;;;;;11.52;7.38;;;15.80;99.90;;;;;;4871674;29;20514;-76
2022/07/18 03:47:55;;;;;;;10.95;7.22;;;15.80;99.90;;;;;;4866050;29;20046;-77
2022/07/18 03:50:20;;;;;;;9.57;7.22;;;15.80;99.90;;;;;;4879657;29;20101;-77
2022/07/18 03:52:46;;;;;;;11.02;7.68;;;15.80;99.90;;;;;;4884126;29;20045;-77
2022/07/18 03:55:13;;;;;;;9.35;7.05;;;15.70;99.90;;;;;;4881668;29;20044;-77
2022/07/18 03:57:38;;;;;;;11.50;7.60;;;15.70;99.90;;;;;;4884286;29;20045;-78
2022/07/18 04:00:09;;;;;;;10.77;7.65;;;15.70;99.90;;;;;;4882851;29;20055;-76
2022/07/18 04:02:46;;;;;;;11.43;8.40;;;15.70;99.90;;;;;;4864593;29;20052;-78
2022/07/18 04:05:13;;;;;;;10.95;7.57;;;15.70;99.90;;;;;;4867680;29;20044;-76
2022/07/18 04:07:39;;;;;;;9.30;7.03;;;15.80;99.90;;;;;;4882885;29;20402;-77
2022/07/18 04:10:07;;;;;;;10.48;7.50;;;15.80;99.90;;;;;;4881442;29;20037;-76
2022/07/18 04:12:32;;;;;;;10.70;7.00;;;15.70;99.90;;;;;;4881596;29;20240;-77
2022/07/18 04:14:58;;;;;;;9.60;7.13;;;15.80;99.90;;;;;;4876932;29;20128;-77
2022/07/18 04:17:24;;;;;;;10.15;6.88;;;15.80;99.90;;;;;;4862206;29;20360;-77
2022/07/18 04:19:50;;;;;;;9.57;6.70;;;15.80;99.90;;;;;;4862853;29;20428;-77
2022/07/18 04:22:16;;;;;;;12.65;7.63;;;15.80;99.90;;;;;;4866507;29;20415;-77
2022/07/18 04:24:42;;;;;;;9.88;6.90;;;15.80;99.90;;;;;;4897841;29;20082;-78
2022/07/18 04:27:08;;;;;;;9.75;6.60;;;15.80;99.90;;;;;;4880558;29;20041;-77
2022/07/18 04:29:35;;;;;;;9.52;6.45;;;15.80;99.90;;;;;;4865431;29;20046;-77
2022/07/18 04:32:02;;;;;;;10.60;7.10;;;15.80;99.90;;;;;;4863390;29;20048;-76
2022/07/18 04:34:27;;;;;;;9.63;6.65;;;15.80;99.90;;;;;;4866115;29;20525;-76
2022/07/18 04:36:53;;;;;;;9.10;6.57;;;15.80;99.90;;;;;;4871843;29;20053;-76
2022/07/18 04:39:19;;;;;;;10.93;6.70;;;15.80;99.90;;;;;;4871272;29;20121;-77
2022/07/18 04:41:45;;;;;;;8.93;6.25;;;15.80;99.90;;;;;;4878906;29;20050;-76
2022/07/18 04:44:10;;;;;;;7.45;5.95;;;15.80;99.90;;;;;;4879198;29;20120;-77
2022/07/18 04:46:36;;;;;;;8.80;6.05;;;15.80;99.90;;;;;;4866138;29;20080;-77
2022/07/18 04:49:02;;;;;;;9.93;5.97;;;15.90;99.90;;;;;;4864099;29;20493;-77
2022/07/18 04:51:28;;;;;;;8.90;6.28;;;15.90;99.90;;;;;;4879421;29;20091;-77
2022/07/18 04:53:54;;;;;;;8.80;5.85;;;15.90;99.90;;;;;;4880531;29;20130;-77
2022/07/18 04:56:21;;;;;;;17.08;7.32;;;16.00;99.90;;;;;;4863889;29;20063;-77
2022/07/18 04:58:47;;;;;;;7.50;5.70;;;16.00;99.90;;;;;;4862045;29;20057;-77
2022/07/18 05:01:13;;;;;;;14.55;6.25;;;16.10;99.90;;;;;;4878909;29;20037;-77
2022/07/18 05:03:39;;;;;;;7.90;5.70;;;16.10;99.90;;;;;;4862166;29;20042;-76
2022/07/18 05:06:05;;;;;;;7.53;5.45;;;16.20;99.90;;;;;;4862383;29;20094;-77
2022/07/18 05:08:31;;;;;;;8.63;5.90;;;16.20;99.90;;;;;;4879855;29;20483;-77
2022/07/18 05:10:56;;;;;;;8.23;5.60;;;16.30;99.90;;;;;;4862460;29;20040;-76
2022/07/18 05:13:22;;;;;;;7.80;5.60;;;16.40;99.90;;;;;;4877034;29;20129;-76
2022/07/18 05:15:48;;;;;;;9.73;6.22;;;16.40;99.90;;;;;;4876446;29;20048;-77
2022/07/18 05:18:14;;;;;;;8.20;5.45;;;16.50;99.90;;;;;;4877709;29;20045;-77
2022/07/18 05:20:40;;;;;;;9.00;5.47;;;16.60;99.90;;;;;;4868484;29;20045;-76
2022/07/18 05:23:05;;;;;;;8.68;5.93;;;16.60;99.90;;;;;;4846297;29;20041;-76
2022/07/18 05:25:31;;;;;;;7.63;5.40;;;16.70;99.90;;;;;;4879815;29;20498;-76
2022/07/18 05:27:57;;;;;;;8.00;5.03;;;16.80;99.90;;;;;;4881768;29;20060;-77
2022/07/18 05:30:24;;;;;;;9.60;5.05;;;16.80;99.90;;;;;;4874900;29;20128;-77
2022/07/18 05:32:51;;;;;;;8.43;5.60;;;16.90;99.90;;;;;;4863561;29;20170;-77
2022/07/18 05:35:18;;;;;;;7.47;5.40;;;16.90;99.90;;;;;;4864697;29;20048;-76
2022/07/18 05:37:43;;;;;;;9.77;4.55;;;17.00;99.90;;;;;;4849384;29;20053;-77
2022/07/18 05:40:12;;;;;;;7.97;5.05;;;17.00;99.90;;;;;;4866187;29;20188;-77
2022/07/18 05:42:38;;;;;;;7.05;4.90;;;17.10;99.90;;;;;;4880086;29;20052;-77
2022/07/18 05:45:05;;;;;;;7.10;4.40;;;17.10;99.90;;;;;;4880241;29;20057;-77
2022/07/18 05:47:31;;;;;;;8.77;4.68;;;17.10;99.90;;;;;;4879721;29;20401;-78
2022/07/18 05:49:56;;;;;;;8.73;4.50;;;17.10;99.90;;;;;;4877880;29;20045;-76
2022/07/18 05:52:22;;;;;;;8.25;4.90;;;17.20;99.90;;;;;;4827121;29;20509;-75
2022/07/18 05:54:48;;;;;;;7.15;4.75;;;17.20;99.90;;;;;;4872298;29;20113;-78
2022/07/18 05:57:14;;;;;;;7.28;4.40;;;17.20;99.90;;;;;;4857086;29;20072;-76
2022/07/18 05:59:39;;;;;;;9.65;4.93;;;17.30;99.90;;;;;;4861380;29;20048;-77
2022/07/18 06:02:05;;;;;;;9.27;4.78;;;17.30;99.90;;;;;;4871309;29;20056;-77
2022/07/18 06:04:31;;;;;;;6.07;4.55;;;17.40;99.90;;;;;;4863577;29;20100;-77
2022/07/18 06:06:57;;;;;;;6.47;4.82;;;17.40;99.90;;;;;;4873961;29;20063;-77
2022/07/18 06:09:22;;;;;;;9.40;5.30;;;17.50;99.90;;;;;;4879044;29;20049;-77
2022/07/18 06:11:48;;;;;;;6.60;5.15;;;17.50;99.90;;;;;;4880263;29;20150;-78
2022/07/18 06:14:14;;;;;;;9.13;5.30;;;17.60;99.90;;;;;;4881459;29;20474;-77
2022/07/18 06:16:40;;;;;;;8.30;5.30;;;17.70;99.90;;;;;;4848344;29;20128;-76
2022/07/18 06:19:05;;;;;;;8.13;5.18;;;17.70;99.90;;;;;;4864199;29;20041;-77
2022/07/18 06:21:31;;;;;;;7.82;5.45;;;17.80;99.90;;;;;;4864775;29;20471;-76
2022/07/18 06:23:57;;;;;;;8.07;5.10;;;17.80;99.90;;;;;;4872990;29;20125;-77
2022/07/18 06:26:22;;;;;;;6.63;4.80;;;17.90;99.90;;;;;;4869542;29;20045;-76
2022/07/18 06:28:48;;;;;;;9.02;5.10;;;18.00;99.90;;;;;;4873365;29;20089;-76
2022/07/18 06:31:17;;;;;;;7.70;5.05;;;18.10;99.90;;;;;;4872776;29;20049;-76
2022/07/18 06:33:43;;;;;;;8.05;4.47;;;18.10;99.90;;;;;;4863898;29;20041;-77
2022/07/18 06:36:11;;;;;;;7.60;5.13;;;18.20;99.90;;;;;;4875401;29;20566;-77
2022/07/18 06:38:38;;;;;;;8.63;5.38;;;18.20;99.90;;;;;;4877547;29;20049;-77
2022/07/18 06:41:04;;;;;;;6.72;4.72;;;18.30;99.90;;;;;;4875881;29;20486;-76
2022/07/18 06:43:30;;;;;;;8.30;4.82;;;18.40;99.90;;;;;;4877166;29;20052;-76
2022/07/18 06:45:57;;;;;;;7.72;4.80;;;18.40;99.90;;;;;;4868320;29;20049;-75
2022/07/18 06:48:23;;;;;;;7.03;4.30;;;18.60;99.90;;;;;;4864885;29;20050;-76
2022/07/18 06:50:49;;;;;;;6.57;3.58;;;18.80;99.90;;;;;;4863448;29;20045;-75
2022/07/18 06:53:15;;;;;;;6.50;3.88;;;18.90;99.90;;;;;;4837778;29;20084;-77
2022/07/18 06:55:41;;;;;;;6.78;4.00;;;19.10;99.90;;;;;;4861577;29;20099;-75
2022/07/18 06:58:07;;;;;;;4.78;3.67;;;19.30;99.90;;;;;;4870270;29;20080;-75
2022/07/18 07:00:33;;;;;;;7.70;3.78;;;19.40;99.90;;;;;;4882162;29;20477;-76
2022/07/18 07:02:58;;;;;;;6.05;3.75;;;19.50;99.90;;;;;;4866828;29;20049;-75
2022/07/18 07:05:24;;;;;;;6.93;3.90;;;19.70;99.90;;;;;;4882545;29;20052;-75
2022/07/18 07:07:50;;;;;;;6.97;3.72;;;19.80;99.90;;;;;;4883348;29;20056;-76
2022/07/18 07:10:18;;;;;;;5.65;3.45;;;19.90;99.90;;;;;;4865797;29;20049;-76
2022/07/18 07:12:48;;;;;;;6.07;3.72;;;20.00;99.90;;;;;;4874304;29;20163;-76
2022/07/18 07:15:17;;;;;;;4.88;3.50;;;20.10;99.90;;;;;;4857869;29;20056;-75
2022/07/18 07:17:43;;;;;;;6.97;3.42;;;20.30;99.90;;;;;;4881519;29;20084;-76
2022/07/18 07:20:09;;;;;;;7.03;3.20;;;20.30;99.90;;;;;;4883138;29;20077;-76
2022/07/18 07:22:45;;;;;;;5.57;3.42;;;20.40;99.90;;;;;;4878569;29;20543;-76
2022/07/18 07:25:12;;;;;;;6.10;3.40;;;20.60;99.90;;;;;;4865719;29;20165;-86
2022/07/18 07:27:38;;;;;;;5.63;3.20;;;20.70;99.90;;;;;;4851367;29;20045;-87
2022/07/18 07:30:05;;;;;;;7.13;3.15;;;21.00;99.90;;;;;;4865638;29;20042;-86
2022/07/18 07:32:35;;;;;;;6.03;3.30;;;21.20;99.80;;;;;;4865117;29;20048;-85
2022/07/18 07:35:01;;;;;;;7.80;3.33;;;21.40;99.10;;;;;;4867036;29;20041;-86
2022/07/18 07:37:27;;;;;;;5.53;2.95;;;21.50;98.90;;;;;;4850262;29;20112;-86
2022/07/18 07:39:52;;;;;;;9.85;2.88;;;21.60;98.70;;;;;;4884966;29;20049;-87
2022/07/18 07:42:18;;;;;;;6.68;2.75;;;21.70;98.20;;;;;;4869063;29;20037;-87
2022/07/18 07:44:44;;;;;;;7.35;3.22;;;22.00;97.70;;;;;;4883600;29;20169;-86
2022/07/18 07:47:09;;;;;;;7.32;3.20;;;22.20;97.40;;;;;;4882723;29;20482;-77
2022/07/18 07:49:36;;;;;;;5.55;3.00;;;22.50;97.10;;;;;;4870414;29;20044;-76
2022/07/18 07:52:02;;;;;;;8.63;3.30;;;22.70;96.50;;;;;;4883562;29;20037;-80
2022/07/18 07:54:28;;;;;;;8.25;2.65;;;22.80;96.30;;;;;;4880909;29;20513;-75
2022/07/18 07:56:54;;;;;;;6.95;3.30;;;22.90;95.90;;;;;;4885271;29;20129;-87
2022/07/18 07:59:19;;;;;;;5.15;3.22;;;23.10;95.60;;;;;;4853820;29;20049;-85
2022/07/18 08:01:45;;;;;;;5.35;2.90;;;23.20;95.10;;;;;;4869210;29;20047;-86
2022/07/18 08:04:11;;;;;;;5.18;2.67;;;23.30;94.90;;;;;;4868439;29;20558;-86
2022/07/18 08:06:36;;;;;;;4.95;2.50;;;23.50;94.30;;;;;;4866522;29;20107;-87
2022/07/18 08:09:02;;;;;;;6.65;2.95;;;23.60;93.90;;;;;;4865257;29;20057;-87
2022/07/18 08:11:28;;;;;;;4.65;2.30;;;23.70;92.90;;;;;;4835098;29;20048;-86
2022/07/18 08:13:54;;;;;;;5.85;2.83;;;23.80;92.70;;;;;;4856827;29;20083;-87
2022/07/18 08:16:20;;;;;;;9.43;2.90;;;23.90;92.30;;;;;;4868134;29;20041;-86
2022/07/18 08:18:45;;;;;;;4.85;2.45;;;24.10;91.50;;;;;;4867954;29;20058;-84
2022/07/18 08:21:12;;;;;;;4.55;2.30;;;24.40;91.20;;;;;;4856737;29;20446;-77
2022/07/18 08:23:37;;;;;;;7.32;2.75;;;24.60;90.30;;;;;;4862657;29;20128;-77
2022/07/18 08:26:03;;;;;;;5.90;2.80;;;24.90;89.20;;;;;;4864057;29;20136;-75
2022/07/18 08:28:29;;;;;;;7.90;2.85;;;25.00;87.80;;;;;;4863205;29;20053;-77
2022/07/18 08:30:55;;;;;;;6.32;2.97;;;25.20;86.50;;;;;;4864404;29;20041;-77
2022/07/18 08:33:20;;;;;;;4.57;2.75;;;25.30;85.70;;;;;;4867534;29;20060;-77
2022/07/18 08:35:46;;;;;;;8.07;2.63;;;25.50;85.30;;;;;;4873755;29;20120;-76
2022/07/18 08:38:12;;;;;;;7.95;2.92;;;25.70;84.90;;;;;;4869898;29;20069;-76
2022/07/18 08:40:38;;;;;;;10.45;2.90;;;25.90;84.40;;;;;;4880766;29;20490;-77
2022/07/18 08:43:04;;;;;;;5.90;2.35;;;26.10;83.80;;;;;;4875669;29;20443;-76
2022/07/18 08:45:33;;;;;;;4.93;2.58;;;26.30;82.70;;;;;;4874403;29;20145;-78
2022/07/18 08:47:59;;;;;;;4.70;2.67;;;26.50;81.60;;;;;;4874054;29;20558;-77
2022/07/18 08:50:26;;;;;;;5.47;2.80;;;26.60;80.60;;;;;;4865224;29;20052;-77
2022/07/18 08:52:52;;;;;;;5.35;2.70;;;26.70;79.90;;;;;;4832649;29;20060;-78
2022/07/18 08:55:17;;;;;;;4.45;2.65;;;26.60;79.20;;;;;;4862783;29;20125;-79
2022/07/18 08:57:43;;;;;;;5.50;2.67;;;26.60;79.10;;;;;;4862781;29;20049;-78
2022/07/18 09:00:10;;;;;;;4.65;2.20;;;26.50;79.10;;;;;;4867284;29;20118;-77
2022/07/18 09:02:36;;;;;;;5.80;2.35;;;26.60;79.20;;;;;;4864560;29;20128;-77
2022/07/18 09:05:04;;;;;;;4.63;2.35;;;26.70;78.40;;;;;;4879816;29;20136;-77
2022/07/18 09:07:32;;;;;;;2.85;1.75;;;26.80;77.70;;;;;;4873237;29;20045;-77
2022/07/18 09:10:00;;;;;;;9.93;2.30;;;27.00;77.40;;;;;;4872069;29;20040;-78
2022/07/18 09:12:29;;;;;;;5.85;2.20;;;27.20;77.00;;;;;;4861909;29;20041;-77
2022/07/18 09:14:55;;;;;;;4.88;2.30;;;27.40;76.00;;;;;;4871267;29;20049;-77
2022/07/18 09:17:26;;;;;;;4.22;2.03;;;27.60;74.60;;;;;;4874972;29;20056;-77
2022/07/18 09:20:16;;;;;;;4.18;2.08;;;27.80;72.30;;;;;;4866969;29;20053;-77
2022/07/18 09:22:49;;;;;;;7.75;2.08;;;28.00;70.10;;;;;;4882159;29;20072;-76
2022/07/18 09:25:21;;;;;;;6.13;2.20;;;28.10;69.20;;;;;;4868682;29;20123;-78
2022/07/18 09:27:52;;;;;;;4.40;2.30;;;28.10;69.00;;;;;;4862629;29;20049;-78
2022/07/18 09:30:33;;;;;;;4.65;2.50;;;28.20;69.30;;;;;;4877156;29;20100;-78
2022/07/18 09:33:02;;;;;;;8.18;2.10;;;28.20;69.00;;;;;;4878040;29;20049;-76
2022/07/18 09:35:28;;;;;;;7.53;2.25;;;28.30;68.50;;;;;;4867684;29;20069;-76
2022/07/18 09:38:07;;;;;;;5.80;2.10;;;28.20;67.70;;;;;;4855860;29;20136;-77
2022/07/18 09:40:43;;;;;;;5.63;2.10;;;28.10;68.30;;;;;;4874209;29;20510;-76
2022/07/18 09:43:14;;;;;;;4.05;2.60;;;28.00;68.90;;;;;;4856344;29;20049;-77
2022/07/18 09:45:44;;;;;;;4.00;2.20;;;28.10;66.80;;;;;;4860361;29;20059;-78
2022/07/18 09:48:26;;;;;;;36.55;3.25;;;28.10;66.70;;;;;;4862011;29;20105;-78
2022/07/18 09:50:52;;;;;;;6.32;2.78;;;28.20;66.90;;;;;;4865526;29;20080;-77
2022/07/18 09:53:26;;;;;;;7.78;2.75;;;28.20;66.90;;;;;;4870324;29;20077;-76
2022/07/18 09:55:55;;;;;;;8.88;2.70;;;28.20;66.70;;;;;;4871482;29;20040;-77
2022/07/18 09:58:32;;;;;;;3.67;2.15;;;28.20;67.30;;;;;;4873814;29;20053;-77
2022/07/18 10:01:00;;;;;;;5.50;2.10;;;28.30;65.10;;;;;;4857458;29;20041;-77
2022/07/18 10:03:27;;;;;;;6.13;2.10;;;28.20;63.70;;;;;;4853526;29;20069;-76
2022/07/18 10:05:57;;;;;;;5.18;2.40;;;28.20;63.10;;;;;;4862689;29;20128;-76
2022/07/18 10:08:27;;;;;;;4.35;2.28;;;28.20;63.60;;;;;;4876947;29;20094;-78
2022/07/18 10:10:54;;;;;;;3.88;2.15;;;28.10;64.50;;;;;;4866330;29;20073;-78
2022/07/18 10:13:23;;;;;;;6.65;2.33;;;28.10;64.80;;;;;;4875851;29;20037;-78
2022/07/18 10:15:50;;;;;;;10.93;2.72;;;28.10;64.30;;;;;;4874635;29;20037;-78
2022/07/18 10:18:19;;;;;;;8.98;2.55;;;28.10;65.10;;;;;;4868400;29;20117;-77
2022/07/18 10:20:54;;;;;;;37.33;3.33;;;28.10;64.60;;;;;;4871080;29;20051;-77
2022/07/18 10:23:42;;;;;;;4.45;2.30;;;28.10;65.10;;;;;;4852229;29;20052;-78
2022/07/18 10:26:15;;;;;;;3.30;1.80;;;28.00;64.50;;;;;;4865720;29;20137;-78
2022/07/18 10:28:59;;;;;;;19.50;2.90;;;28.00;64.40;;;;;;4878219;29;20414;-78
2022/07/18 10:31:38;;;;;;;5.07;2.30;;;28.00;62.50;;;;;;4892530;29;20041;-78
2022/07/18 10:34:07;;;;;;;8.48;2.35;;;28.00;63.00;;;;;;4858496;29;20049;-76
2022/07/18 10:36:54;;;;;;;5.35;2.40;;;28.00;62.60;;;;;;4853748;29;20399;-77
2022/07/18 10:39:31;;;;;;;4.13;2.40;;;28.10;62.90;;;;;;4845561;29;20048;-78
2022/07/18 10:42:03;;;;;;;4.82;2.30;;;28.00;62.30;;;;;;4871849;29;20068;-75
2022/07/18 10:44:31;;;;;;;4.82;2.47;;;28.10;62.60;;;;;;4868508;29;20061;-77
2022/07/18 10:47:03;;;;;;;10.02;2.63;;;28.10;62.60;;;;;;4873321;29;20503;-75
2022/07/18 10:49:47;;;;;;;5.35;2.60;;;28.10;62.70;;;;;;4856084;29;20053;-78
2022/07/18 10:52:28;;;;;;;3.60;2.50;;;28.10;61.00;;;;;;4849602;29;20033;-77
2022/07/18 10:55:03;;;;;;;10.57;2.70;;;28.10;60.60;;;;;;4862936;29;20536;-78
2022/07/18 10:58:05;;;;;;;6.63;2.70;;;28.20;59.10;;;;;;4877950;29;20041;-78
2022/07/18 11:00:36;;;;;;;5.68;2.47;;;28.20;59.40;;;;;;4877721;29;20501;-79
2022/07/18 11:03:10;;;;;;;6.25;2.80;;;28.20;60.90;;;;;;4844709;29;20046;-78
2022/07/18 11:05:42;;;;;;;4.53;2.70;;;28.20;60.00;;;;;;4862144;29;20123;-77
2022/07/18 11:08:09;;;;;;;3.83;2.63;;;28.20;60.30;;;;;;4879142;29;20059;-79
2022/07/18 11:10:45;;;;;;;7.03;2.95;;;28.20;61.10;;;;;;4878291;29;20393;-78
2022/07/18 11:13:27;;;;;;;4.65;2.50;;;28.20;64.20;;;;;;4859857;29;20037;-78
2022/07/18 11:16:09;;;;;;;6.72;3.05;;;28.30;62.80;;;;;;4880734;29;20049;-77
2022/07/18 11:18:50;;;;;;;5.18;2.58;;;28.30;62.10;;;;;;4869641;29;20046;-77
2022/07/18 11:21:24;;;;;;;6.10;3.08;;;28.40;59.60;;;;;;4875856;29;20053;-78
2022/07/18 11:23:52;;;;;;;4.70;2.75;;;28.50;60.70;;;;;;4876386;29;20120;-76
2022/07/18 11:26:20;;;;;;;12.82;2.70;;;28.60;61.40;;;;;;4879317;29;20049;-78
2022/07/18 11:28:57;;;;;;;4.38;2.70;;;28.70;61.60;;;;;;4856307;29;20387;-78
2022/07/18 11:31:22;;;;;;;4.68;2.72;;;28.70;60.50;;;;;;4862737;29;20525;-77
2022/07/18 11:33:49;;;;;;;6.40;3.15;;;28.70;59.60;;;;;;4860235;29;20037;-76
2022/07/18 11:36:21;;;;;;;6.20;2.92;;;28.80;61.20;;;;;;4866574;29;20518;-76
2022/07/18 11:38:52;;;;;;;7.80;3.85;;;28.80;61.30;;;;;;4882710;29;20635;-78
2022/07/18 11:41:19;;;;;;;6.72;2.90;;;28.80;58.70;;;;;;4857233;29;20101;-79
2022/07/18 11:43:46;;;;;;;5.22;2.72;;;28.90;59.20;;;;;;4876675;29;20402;-77
2022/07/18 11:46:15;;;;;;;7.10;3.25;;;29.00;58.90;;;;;;4864836;29;20553;-77
2022/07/18 11:48:42;;;;;;;6.30;3.05;;;29.10;58.30;;;;;;4869197;29;20056;-77
2022/07/18 11:51:14;;;;;;;4.80;3.05;;;29.20;58.40;;;;;;4867471;29;20037;-78
2022/07/18 11:53:52;;;;;;;3.70;2.50;;;29.30;59.10;;;;;;4867006;29;20049;-78
2022/07/18 11:56:20;;;;;;;5.43;2.45;;;29.50;58.80;;;;;;4876533;29;20048;-79
2022/07/18 11:58:48;;;;;;;3.72;2.53;;;29.50;59.10;;;;;;4879563;29;20637;-78
2022/07/18 12:01:13;;;;;;;6.82;2.55;;;29.60;58.90;;;;;;4861039;29;20120;-77
2022/07/18 12:03:48;;;;;;;4.13;2.78;;;29.60;58.40;;;;;;4912566;29;20197;-76
2022/07/18 12:06:23;;;;;;;6.38;2.80;;;29.50;57.60;;;;;;4862783;29;20506;-77
2022/07/18 12:09:00;;;;;;;4.32;2.40;;;29.50;57.60;;;;;;4866687;29;20053;-77
2022/07/18 12:11:34;;;;;;;5.00;2.67;;;29.40;57.90;;;;;;4863686;29;20047;-77
2022/07/18 12:14:16;;;;;;;5.50;2.53;;;29.40;58.40;;;;;;4872071;29;20124;-77
2022/07/18 12:16:56;;;;;;;6.38;2.70;;;29.50;59.60;;;;;;4879980;29;20033;-76
2022/07/18 12:19:31;;;;;;;5.32;2.50;;;29.60;58.60;;;;;;4861249;29;20042;-77
2022/07/18 12:22:11;;;;;;;3.72;2.30;;;29.70;58.00;;;;;;4853101;29;20041;-78
2022/07/18 12:25:00;;;;;;;2.83;2.15;;;29.80;57.30;;;;;;4876124;29;20048;-78
2022/07/18 12:27:32;;;;;;;8.95;2.80;;;30.00;56.80;;;;;;4876104;29;20454;-77
2022/07/18 12:30:10;;;;;;;7.22;3.10;;;30.20;56.90;;;;;;4850231;29;20084;-78
2022/07/18 12:32:56;;;;;;;7.03;2.70;;;30.30;58.20;;;;;;4871300;29;20041;-77
2022/07/18 12:35:27;;;;;;;4.03;2.30;;;30.40;56.90;;;;;;4877521;29;20055;-78
2022/07/18 12:38:00;;;;;;;5.55;2.22;;;30.50;56.90;;;;;;4872914;29;20043;-78
2022/07/18 12:40:38;;;;;;;6.72;2.50;;;30.60;56.50;;;;;;4877683;29;20041;-79
2022/07/18 12:43:07;;;;;;;3.95;2.58;;;30.80;57.50;;;;;;4870672;29;20077;-77
2022/07/18 12:45:33;;;;;;;3.63;2.08;;;31.00;58.60;;;;;;4871134;29;20045;-78
2022/07/18 12:48:00;;;;;;;3.92;2.20;;;31.30;57.60;;;;;;4850632;29;20053;-77
2022/07/18 12:50:25;;;;;;;4.15;2.17;;;31.50;57.40;;;;;;4857979;29;20074;-77
2022/07/18 12:52:51;;;;;;;4.50;2.00;;;31.80;57.20;;;;;;4850663;29;20116;-78